sensor_id;sensor_type;location;lat;lon;timestamp;pressure;altitude;pressure_sealevel;temperature;humidity
12759;BME280;20944;47.048;15.390;2023-07-20T00:00:50;97011.00;;;21.95;73.21
12759;BME280;20944;47.048;15.390;2023-07-20T00:03:20;97055.28;;;22.19;74.32
12759;BME280;20944;47.048;15.390;2023-07-20T00:05:50;97054.72;;;22.15;75.22
12759;BME280;20944;47.048;15.390;2023-07-20T00:08:18;97049.88;;;22.09;75.60
12759;BME280;20944;47.048;15.390;2023-07-20T00:10:48;97066.50;;;22.13;75.14
12759;BME280;20944;47.048;15.390;2023-07-20T00:13:16;97047.69;;;22.03;74.48
12759;BME280;20944;47.048;15.390;2023-07-20T00:15:45;97046.34;;;22.08;75.97
12759;BME280;20944;47.048;15.390;2023-07-20T00:18:14;97050.75;;;21.98;75.77
12759;BME280;20944;47.048;15.390;2023-07-20T00:20:42;97051.84;;;21.96;74.56
12759;BME280;20944;47.048;15.390;2023-07-20T00:23:10;97046.03;;;21.91;72.91
12759;BME280;20944;47.048;15.390;2023-07-20T00:25:38;97037.66;;;21.95;72.54
12759;BME280;20944;47.048;15.390;2023-07-20T00:28:08;97034.59;;;22.00;71.83
12759;BME280;20944;47.048;15.390;2023-07-20T00:30:38;97033.75;;;21.99;73.42
12759;BME280;20944;47.048;15.390;2023-07-20T00:33:09;97030.50;;;21.96;73.68
12759;BME280;20944;47.048;15.390;2023-07-20T00:35:38;97022.53;;;21.85;71.34
12759;BME280;20944;47.048;15.390;2023-07-20T00:38:06;97016.50;;;21.83;71.90
12759;BME280;20944;47.048;15.390;2023-07-20T00:40:37;97013.84;;;21.83;70.80
12759;BME280;20944;47.048;15.390;2023-07-20T00:43:07;97007.34;;;21.64;72.50
12759;BME280;20944;47.048;15.390;2023-07-20T00:45:36;97031.91;;;21.79;71.12
12759;BME280;20944;47.048;15.390;2023-07-20T00:48:07;97030.22;;;21.78;70.75
12759;BME280;20944;47.048;15.390;2023-07-20T00:50:36;97030.47;;;21.75;70.57
12759;BME280;20944;47.048;15.390;2023-07-20T00:53:05;97034.44;;;21.80;71.60
12759;BME280;20944;47.048;15.390;2023-07-20T00:55:34;97030.91;;;21.80;72.44
12759;BME280;20944;47.048;15.390;2023-07-20T00:58:02;97033.34;;;21.83;72.54
12759;BME280;20944;47.048;15.390;2023-07-20T01:00:32;97024.88;;;21.78;72.14
12759;BME280;20944;47.048;15.390;2023-07-20T01:03:01;97028.53;;;21.77;73.03
12759;BME280;20944;47.048;15.390;2023-07-20T01:05:38;97007.22;;;21.66;74.03
12759;BME280;20944;47.048;15.390;2023-07-20T01:08:12;97025.16;;;21.75;74.44
12759;BME280;20944;47.048;15.390;2023-07-20T01:10:48;97026.84;;;21.76;74.18
12759;BME280;20944;47.048;15.390;2023-07-20T01:13:20;97013.38;;;21.77;71.97
12759;BME280;20944;47.048;15.390;2023-07-20T01:15:56;97010.09;;;21.74;71.39
12759;BME280;20944;47.048;15.390;2023-07-20T01:18:25;96993.81;;;21.56;72.41
12759;BME280;20944;47.048;15.390;2023-07-20T01:20:58;97005.44;;;21.55;73.13
12759;BME280;20944;47.048;15.390;2023-07-20T01:24:04;97008.56;;;21.60;74.06
12759;BME280;20944;47.048;15.390;2023-07-20T01:27:00;97006.03;;;21.59;73.11
12759;BME280;20944;47.048;15.390;2023-07-20T01:29:35;97006.53;;;21.52;73.96
12759;BME280;20944;47.048;15.390;2023-07-20T01:32:10;97008.25;;;21.42;73.46
12759;BME280;20944;47.048;15.390;2023-07-20T01:34:38;97008.75;;;21.36;73.08
12759;BME280;20944;47.048;15.390;2023-07-20T01:37:07;97016.16;;;21.33;72.20
12759;BME280;20944;47.048;15.390;2023-07-20T01:39:36;97012.16;;;21.38;70.84
12759;BME280;20944;47.048;15.390;2023-07-20T01:42:05;97017.13;;;21.32;71.31
12759;BME280;20944;47.048;15.390;2023-07-20T01:44:33;97024.16;;;21.33;73.52
12759;BME280;20944;47.048;15.390;2023-07-20T01:47:01;97028.38;;;21.35;73.63
12759;BME280;20944;47.048;15.390;2023-07-20T01:49:30;97026.47;;;21.37;73.46
12759;BME280;20944;47.048;15.390;2023-07-20T01:51:58;97038.19;;;21.46;73.62
12759;BME280;20944;47.048;15.390;2023-07-20T01:54:26;97036.97;;;21.50;73.51
12759;BME280;20944;47.048;15.390;2023-07-20T01:56:53;97040.38;;;21.41;73.42
12759;BME280;20944;47.048;15.390;2023-07-20T01:59:21;97039.88;;;21.36;73.21
12759;BME280;20944;47.048;15.390;2023-07-20T02:01:49;97048.38;;;21.41;73.67
12759;BME280;20944;47.048;15.390;2023-07-20T02:04:17;97048.72;;;21.36;72.46
12759;BME280;20944;47.048;15.390;2023-07-20T02:06:47;97049.22;;;21.41;72.68
12759;BME280;20944;47.048;15.390;2023-07-20T02:09:14;97050.91;;;21.42;73.26
12759;BME280;20944;47.048;15.390;2023-07-20T02:11:42;97050.91;;;21.42;74.15
12759;BME280;20944;47.048;15.390;2023-07-20T02:14:10;97051.88;;;21.41;71.73
12759;BME280;20944;47.048;15.390;2023-07-20T02:16:38;97057.00;;;21.33;72.69
12759;BME280;20944;47.048;15.390;2023-07-20T02:19:06;97049.34;;;21.28;72.52
12759;BME280;20944;47.048;15.390;2023-07-20T02:21:34;97053.47;;;21.33;71.47
12759;BME280;20944;47.048;15.390;2023-07-20T02:24:04;97054.91;;;21.37;73.88
12759;BME280;20944;47.048;15.390;2023-07-20T02:26:32;97064.97;;;21.22;73.53
12759;BME280;20944;47.048;15.390;2023-07-20T02:28:59;97071.13;;;21.22;73.15
12759;BME280;20944;47.048;15.390;2023-07-20T02:31:29;97068.38;;;21.35;72.84
12759;BME280;20944;47.048;15.390;2023-07-20T02:33:57;97094.44;;;21.32;73.72
12759;BME280;20944;47.048;15.390;2023-07-20T02:36:25;97082.19;;;21.29;72.27
12759;BME280;20944;47.048;15.390;2023-07-20T02:38:53;97075.63;;;21.22;74.24
12759;BME280;20944;47.048;15.390;2023-07-20T02:41:22;97073.44;;;21.27;72.29
12759;BME280;20944;47.048;15.390;2023-07-20T02:43:50;97076.34;;;21.24;73.70
12759;BME280;20944;47.048;15.390;2023-07-20T02:46:18;97088.81;;;21.23;72.82
12759;BME280;20944;47.048;15.390;2023-07-20T02:48:46;97093.16;;;21.24;74.19
12759;BME280;20944;47.048;15.390;2023-07-20T02:51:14;97093.19;;;21.13;72.68
12759;BME280;20944;47.048;15.390;2023-07-20T02:53:42;97082.91;;;21.20;72.70
12759;BME280;20944;47.048;15.390;2023-07-20T02:56:10;97087.63;;;21.27;69.14
12759;BME280;20944;47.048;15.390;2023-07-20T02:58:41;97086.31;;;21.33;68.65
12759;BME280;20944;47.048;15.390;2023-07-20T03:01:12;97087.16;;;21.45;68.08
12759;BME280;20944;47.048;15.390;2023-07-20T03:03:42;97089.91;;;21.43;69.16
12759;BME280;20944;47.048;15.390;2023-07-20T03:06:13;97084.84;;;21.51;64.39
12759;BME280;20944;47.048;15.390;2023-07-20T03:08:41;97083.38;;;21.59;65.42
12759;BME280;20944;47.048;15.390;2023-07-20T03:11:14;97082.25;;;21.61;66.77
12759;BME280;20944;47.048;15.390;2023-07-20T03:13:43;97090.75;;;21.66;68.95
12759;BME280;20944;47.048;15.390;2023-07-20T03:16:12;97081.66;;;21.69;68.27
12759;BME280;20944;47.048;15.390;2023-07-20T03:18:41;97084.56;;;21.66;70.42
12759;BME280;20944;47.048;15.390;2023-07-20T03:21:10;97081.69;;;21.58;70.63
12759;BME280;20944;47.048;15.390;2023-07-20T03:23:38;97084.56;;;21.54;71.15
12759;BME280;20944;47.048;15.390;2023-07-20T03:26:06;97079.88;;;21.47;70.05
12759;BME280;20944;47.048;15.390;2023-07-20T03:28:35;97085.31;;;21.57;71.46
12759;BME280;20944;47.048;15.390;2023-07-20T03:31:04;97080.94;;;21.55;69.41
12759;BME280;20944;47.048;15.390;2023-07-20T03:33:33;97077.06;;;21.48;70.62
12759;BME280;20944;47.048;15.390;2023-07-20T03:36:01;97083.03;;;21.41;71.01
12759;BME280;20944;47.048;15.390;2023-07-20T03:38:29;97091.28;;;21.38;70.91
12759;BME280;20944;47.048;15.390;2023-07-20T03:40:58;97077.69;;;21.30;70.67
12759;BME280;20944;47.048;15.390;2023-07-20T03:43:26;97081.34;;;21.28;70.70
12759;BME280;20944;47.048;15.390;2023-07-20T03:45:54;97090.53;;;21.36;71.54
12759;BME280;20944;47.048;15.390;2023-07-20T03:48:24;97095.78;;;21.37;72.74
12759;BME280;20944;47.048;15.390;2023-07-20T03:50:53;97088.13;;;21.33;72.89
12759;BME280;20944;47.048;15.390;2023-07-20T03:53:21;97100.47;;;21.34;72.96
12759;BME280;20944;47.048;15.390;2023-07-20T03:55:49;97094.19;;;21.35;70.36
12759;BME280;20944;47.048;15.390;2023-07-20T03:58:18;97095.03;;;21.35;69.95
12759;BME280;20944;47.048;15.390;2023-07-20T04:00:48;97033.84;;;20.89;71.78
12759;BME280;20944;47.048;15.390;2023-07-20T04:03:18;97107.75;;;21.32;69.83
12759;BME280;20944;47.048;15.390;2023-07-20T04:05:48;97095.78;;;21.37;66.19
12759;BME280;20944;47.048;15.390;2023-07-20T04:08:16;97098.78;;;21.44;67.18
12759;BME280;20944;47.048;15.390;2023-07-20T04:10:44;97103.72;;;21.48;67.14
12759;BME280;20944;47.048;15.390;2023-07-20T04:13:12;97096.09;;;21.55;65.80
12759;BME280;20944;47.048;15.390;2023-07-20T04:15:40;97105.25;;;21.73;63.19
12759;BME280;20944;47.048;15.390;2023-07-20T04:18:08;97108.13;;;21.93;61.61
12759;BME280;20944;47.048;15.390;2023-07-20T04:20:36;97111.88;;;22.01;61.27
12759;BME280;20944;47.048;15.390;2023-07-20T04:23:05;97114.88;;;22.08;61.23
12759;BME280;20944;47.048;15.390;2023-07-20T04:25:33;97114.97;;;22.18;60.46
12759;BME280;20944;47.048;15.390;2023-07-20T04:28:06;97113.72;;;22.33;60.40
12759;BME280;20944;47.048;15.390;2023-07-20T04:30:37;97115.63;;;22.42;61.03
12759;BME280;20944;47.048;15.390;2023-07-20T04:33:05;97110.34;;;22.52;60.01
12759;BME280;20944;47.048;15.390;2023-07-20T04:35:46;97114.13;;;22.70;59.81
12759;BME280;20944;47.048;15.390;2023-07-20T04:38:16;97115.00;;;22.92;58.59
12759;BME280;20944;47.048;15.390;2023-07-20T04:40:45;97108.28;;;22.97;58.73
12759;BME280;20944;47.048;15.390;2023-07-20T04:43:13;97105.59;;;22.97;59.89
12759;BME280;20944;47.048;15.390;2023-07-20T04:45:41;97119.94;;;22.96;59.47
12759;BME280;20944;47.048;15.390;2023-07-20T04:48:10;97116.69;;;22.93;58.03
12759;BME280;20944;47.048;15.390;2023-07-20T04:50:40;97114.84;;;22.93;59.53
12759;BME280;20944;47.048;15.390;2023-07-20T04:53:08;97121.66;;;22.97;59.97
12759;BME280;20944;47.048;15.390;2023-07-20T04:55:38;97120.72;;;22.87;59.79
12759;BME280;20944;47.048;15.390;2023-07-20T04:58:06;97124.56;;;22.94;60.25
12759;BME280;20944;47.048;15.390;2023-07-20T05:00:34;97119.94;;;22.96;61.88
12759;BME280;20944;47.048;15.390;2023-07-20T05:03:02;97129.66;;;22.97;60.95
12759;BME280;20944;47.048;15.390;2023-07-20T05:05:32;97125.03;;;22.99;62.17
12759;BME280;20944;47.048;15.390;2023-07-20T05:08:00;97128.53;;;23.00;62.55
12759;BME280;20944;47.048;15.390;2023-07-20T05:10:28;97135.00;;;22.97;64.35
12759;BME280;20944;47.048;15.390;2023-07-20T05:12:57;97142.19;;;22.97;63.29
12759;BME280;20944;47.048;15.390;2023-07-20T05:15:25;97128.75;;;22.87;64.62
12759;BME280;20944;47.048;15.390;2023-07-20T05:17:53;97141.84;;;22.90;65.41
12759;BME280;20944;47.048;15.390;2023-07-20T05:20:21;97139.38;;;22.98;65.45
12759;BME280;20944;47.048;15.390;2023-07-20T05:22:49;97136.50;;;22.90;66.89
12759;BME280;20944;47.048;15.390;2023-07-20T05:25:17;97142.44;;;22.94;64.71
12759;BME280;20944;47.048;15.390;2023-07-20T05:27:45;97136.84;;;22.97;65.95
12759;BME280;20944;47.048;15.390;2023-07-20T05:30:15;97138.28;;;23.01;63.41
12759;BME280;20944;47.048;15.390;2023-07-20T05:32:43;97149.06;;;22.99;63.75
12759;BME280;20944;47.048;15.390;2023-07-20T05:35:12;97146.25;;;22.80;65.35
12759;BME280;20944;47.048;15.390;2023-07-20T05:37:41;97148.41;;;22.86;67.55
12759;BME280;20944;47.048;15.390;2023-07-20T05:40:09;97151.06;;;22.86;66.13
12759;BME280;20944;47.048;15.390;2023-07-20T05:42:38;97150.50;;;22.82;64.19
12759;BME280;20944;47.048;15.390;2023-07-20T05:45:06;97153.75;;;22.86;64.77
12759;BME280;20944;47.048;15.390;2023-07-20T05:47:36;97146.09;;;22.93;65.05
12759;BME280;20944;47.048;15.390;2023-07-20T05:50:04;97147.84;;;23.03;65.68
12759;BME280;20944;47.048;15.390;2023-07-20T05:52:32;97146.78;;;23.15;67.00
12759;BME280;20944;47.048;15.390;2023-07-20T05:55:00;97149.69;;;23.33;65.58
12759;BME280;20944;47.048;15.390;2023-07-20T05:57:29;97152.13;;;23.46;63.91
12759;BME280;20944;47.048;15.390;2023-07-20T05:59:57;97149.19;;;23.49;64.44
12759;BME280;20944;47.048;15.390;2023-07-20T06:02:25;97144.13;;;23.56;66.22
12759;BME280;20944;47.048;15.390;2023-07-20T06:04:55;97144.47;;;23.62;63.94
12759;BME280;20944;47.048;15.390;2023-07-20T06:07:23;97144.47;;;23.62;63.06
12759;BME280;20944;47.048;15.390;2023-07-20T06:09:51;97149.72;;;23.64;63.90
12759;BME280;20944;47.048;15.390;2023-07-20T06:12:19;97159.94;;;23.59;64.43
12759;BME280;20944;47.048;15.390;2023-07-20T06:14:47;97162.84;;;23.46;65.92
12759;BME280;20944;47.048;15.390;2023-07-20T06:17:14;97152.59;;;23.51;66.94
12759;BME280;20944;47.048;15.390;2023-07-20T06:19:42;97157.63;;;23.45;65.39
12759;BME280;20944;47.048;15.390;2023-07-20T06:22:12;97162.97;;;23.45;64.31
12759;BME280;20944;47.048;15.390;2023-07-20T06:24:40;97159.78;;;23.30;65.56
12759;BME280;20944;47.048;15.390;2023-07-20T06:27:07;97163.38;;;23.40;65.02
12759;BME280;20944;47.048;15.390;2023-07-20T06:29:35;97168.19;;;23.46;65.20
12759;BME280;20944;47.048;15.390;2023-07-20T06:32:04;97172.88;;;23.54;65.74
12759;BME280;20944;47.048;15.390;2023-07-20T06:34:33;97173.25;;;23.70;65.55
12759;BME280;20944;47.048;15.390;2023-07-20T06:37:03;97175.81;;;23.81;61.57
12759;BME280;20944;47.048;15.390;2023-07-20T06:39:33;97175.44;;;23.95;62.10
12759;BME280;20944;47.048;15.390;2023-07-20T06:42:04;97179.81;;;23.97;60.93
12759;BME280;20944;47.048;15.390;2023-07-20T06:44:32;97183.88;;;23.91;62.78
12759;BME280;20944;47.048;15.390;2023-07-20T06:47:00;97179.25;;;24.03;61.25
12759;BME280;20944;47.048;15.390;2023-07-20T06:49:28;97178.41;;;24.02;61.69
12759;BME280;20944;47.048;15.390;2023-07-20T06:51:56;97175.19;;;24.08;62.63
12759;BME280;20944;47.048;15.390;2023-07-20T06:54:24;97175.88;;;24.10;62.76
12759;BME280;20944;47.048;15.390;2023-07-20T06:56:53;97164.88;;;24.13;62.77
12759;BME280;20944;47.048;15.390;2023-07-20T06:59:24;97176.47;;;24.14;59.19
12759;BME280;20944;47.048;15.390;2023-07-20T07:01:52;97168.44;;;24.14;62.04
12759;BME280;20944;47.048;15.390;2023-07-20T07:04:20;97182.78;;;24.13;61.91
12759;BME280;20944;47.048;15.390;2023-07-20T07:06:48;97178.44;;;24.21;59.70
12759;BME280;20944;47.048;15.390;2023-07-20T07:09:16;97172.66;;;24.16;57.84
12759;BME280;20944;47.048;15.390;2023-07-20T07:11:44;97172.25;;;24.21;58.84
12759;BME280;20944;47.048;15.390;2023-07-20T07:14:14;97184.66;;;24.22;57.78
12759;BME280;20944;47.048;15.390;2023-07-20T07:16:42;97182.66;;;24.24;57.73
12759;BME280;20944;47.048;15.390;2023-07-20T07:19:10;97183.50;;;24.25;57.22
12759;BME280;20944;47.048;15.390;2023-07-20T07:21:38;97184.09;;;24.28;57.56
12759;BME280;20944;47.048;15.390;2023-07-20T07:24:06;97187.78;;;24.37;58.09
12759;BME280;20944;47.048;15.390;2023-07-20T07:26:36;97189.22;;;24.41;57.67
12759;BME280;20944;47.048;15.390;2023-07-20T07:29:04;97187.09;;;24.44;56.78
12759;BME280;20944;47.048;15.390;2023-07-20T07:31:34;97186.69;;;24.49;57.13
12759;BME280;20944;47.048;15.390;2023-07-20T07:34:03;97181.06;;;24.52;57.01
12759;BME280;20944;47.048;15.390;2023-07-20T07:36:31;97189.78;;;24.54;56.38
12759;BME280;20944;47.048;15.390;2023-07-20T07:38:59;97184.28;;;24.56;55.48
12759;BME280;20944;47.048;15.390;2023-07-20T07:41:30;97188.81;;;24.65;56.49
12759;BME280;20944;47.048;15.390;2023-07-20T07:43:57;97180.91;;;24.73;56.02
12759;BME280;20944;47.048;15.390;2023-07-20T07:46:25;97185.66;;;24.89;55.81
12759;BME280;20944;47.048;15.390;2023-07-20T07:48:55;97181.28;;;25.17;55.53
12759;BME280;20944;47.048;15.390;2023-07-20T07:51:23;97170.50;;;25.46;54.41
12759;BME280;20944;47.048;15.390;2023-07-20T07:53:51;97171.66;;;25.71;53.35
12759;BME280;20944;47.048;15.390;2023-07-20T07:56:19;97170.00;;;25.97;54.27
12759;BME280;20944;47.048;15.390;2023-07-20T07:58:50;97168.44;;;26.22;52.06
12759;BME280;20944;47.048;15.390;2023-07-20T08:01:19;97160.78;;;26.45;52.12
12759;BME280;20944;47.048;15.390;2023-07-20T08:03:47;97143.03;;;26.52;52.07
12759;BME280;20944;47.048;15.390;2023-07-20T08:06:17;97161.94;;;26.78;48.68
12759;BME280;20944;47.048;15.390;2023-07-20T08:08:45;97144.47;;;26.82;50.98
12759;BME280;20944;47.048;15.390;2023-07-20T08:11:13;97153.69;;;26.98;49.65
12759;BME280;20944;47.048;15.390;2023-07-20T08:13:42;97153.44;;;27.09;48.67
12759;BME280;20944;47.048;15.390;2023-07-20T08:16:10;97166.84;;;27.27;47.59
12759;BME280;20944;47.048;15.390;2023-07-20T08:18:38;97173.34;;;27.42;47.84
12759;BME280;20944;47.048;15.390;2023-07-20T08:21:06;97161.97;;;27.48;45.51
12759;BME280;20944;47.048;15.390;2023-07-20T08:23:35;97159.56;;;27.45;47.02
12759;BME280;20944;47.048;15.390;2023-07-20T08:26:03;97159.75;;;27.18;47.55
12759;BME280;20944;47.048;15.390;2023-07-20T08:28:31;97162.13;;;27.03;49.04
12759;BME280;20944;47.048;15.390;2023-07-20T08:30:59;97160.72;;;26.91;48.38
12759;BME280;20944;47.048;15.390;2023-07-20T08:33:27;97167.06;;;26.89;48.46
12759;BME280;20944;47.048;15.390;2023-07-20T08:36:00;97167.91;;;26.90;47.97
12759;BME280;20944;47.048;15.390;2023-07-20T08:38:28;97168.16;;;26.79;47.30
12759;BME280;20944;47.048;15.390;2023-07-20T08:40:57;97164.06;;;26.93;48.14
12759;BME280;20944;47.048;15.390;2023-07-20T08:43:26;97162.94;;;27.21;48.01
12759;BME280;20944;47.048;15.390;2023-07-20T08:45:55;97170.97;;;27.39;47.60
12759;BME280;20944;47.048;15.390;2023-07-20T08:48:24;97171.75;;;27.57;49.02
12759;BME280;20944;47.048;15.390;2023-07-20T08:50:52;97172.06;;;27.80;46.34
12759;BME280;20944;47.048;15.390;2023-07-20T08:53:20;97167.06;;;27.85;43.79
12759;BME280;20944;47.048;15.390;2023-07-20T08:55:50;97156.19;;;28.11;46.08
12759;BME280;20944;47.048;15.390;2023-07-20T08:58:19;97158.72;;;28.13;43.75
12759;BME280;20944;47.048;15.390;2023-07-20T09:00:48;97160.38;;;28.06;41.88
12759;BME280;20944;47.048;15.390;2023-07-20T09:03:18;97165.34;;;27.84;42.80
12759;BME280;20944;47.048;15.390;2023-07-20T09:05:46;97153.59;;;27.93;43.35
12759;BME280;20944;47.048;15.390;2023-07-20T09:08:14;97156.56;;;28.16;43.21
12759;BME280;20944;47.048;15.390;2023-07-20T09:10:42;97147.81;;;28.22;41.53
12759;BME280;20944;47.048;15.390;2023-07-20T09:13:13;97157.44;;;28.33;45.74
12759;BME280;20944;47.048;15.390;2023-07-20T09:15:46;97152.25;;;28.48;46.96
12759;BME280;20944;47.048;15.390;2023-07-20T09:18:23;97152.09;;;28.66;46.80
12759;BME280;20944;47.048;15.390;2023-07-20T09:20:51;97149.75;;;28.79;45.25
12759;BME280;20944;47.048;15.390;2023-07-20T09:23:19;97144.00;;;28.82;47.18
12759;BME280;20944;47.048;15.390;2023-07-20T09:25:47;97164.56;;;28.83;46.47
12759;BME280;20944;47.048;15.390;2023-07-20T09:28:17;97147.72;;;28.89;47.81
12759;BME280;20944;47.048;15.390;2023-07-20T09:30:47;97150.06;;;28.84;46.41
12759;BME280;20944;47.048;15.390;2023-07-20T09:33:21;97150.06;;;28.84;48.29
12759;BME280;20944;47.048;15.390;2023-07-20T09:35:52;97157.53;;;28.98;47.54
12759;BME280;20944;47.048;15.390;2023-07-20T09:38:22;97145.88;;;28.82;46.65
12759;BME280;20944;47.048;15.390;2023-07-20T09:40:50;97151.59;;;28.54;47.23
12759;BME280;20944;47.048;15.390;2023-07-20T09:43:24;97144.16;;;28.40;48.13
12759;BME280;20944;47.048;15.390;2023-07-20T09:45:58;97148.47;;;28.25;46.21
12759;BME280;20944;47.048;15.390;2023-07-20T09:48:26;97150.28;;;28.16;49.41
12759;BME280;20944;47.048;15.390;2023-07-20T09:50:57;97145.72;;;28.08;51.41
12759;BME280;20944;47.048;15.390;2023-07-20T09:53:26;97148.28;;;28.18;50.81
12759;BME280;20944;47.048;15.390;2023-07-20T09:55:55;97149.63;;;28.14;51.63
12759;BME280;20944;47.048;15.390;2023-07-20T09:58:23;97156.47;;;28.42;49.19
12759;BME280;20944;47.048;15.390;2023-07-20T10:00:54;97153.94;;;28.65;49.04
12759;BME280;20944;47.048;15.390;2023-07-20T10:03:26;97158.16;;;28.52;49.45
12759;BME280;20944;47.048;15.390;2023-07-20T10:06:02;97151.75;;;28.44;51.97
12759;BME280;20944;47.048;15.390;2023-07-20T10:08:34;97152.56;;;28.37;52.40
12759;BME280;20944;47.048;15.390;2023-07-20T10:11:06;97149.31;;;28.25;52.91
12759;BME280;20944;47.048;15.390;2023-07-20T10:13:37;97150.47;;;28.14;54.10
12759;BME280;20944;47.048;15.390;2023-07-20T10:16:06;97149.50;;;28.23;56.49
12759;BME280;20944;47.048;15.390;2023-07-20T10:18:38;97156.78;;;28.39;54.77
12759;BME280;20944;47.048;15.390;2023-07-20T10:21:10;97153.59;;;28.52;52.66
12759;BME280;20944;47.048;15.390;2023-07-20T10:23:42;97150.75;;;28.62;51.46
12759;BME280;20944;47.048;15.390;2023-07-20T10:26:10;97148.91;;;28.62;51.58
12759;BME280;20944;47.048;15.390;2023-07-20T10:28:38;97157.47;;;28.58;51.15
12759;BME280;20944;47.048;15.390;2023-07-20T10:31:07;97141.97;;;28.43;49.90
12759;BME280;20944;47.048;15.390;2023-07-20T10:33:37;97142.75;;;28.28;50.39
12759;BME280;20944;47.048;15.390;2023-07-20T10:36:06;97140.19;;;28.10;49.46
12759;BME280;20944;47.048;15.390;2023-07-20T10:38:38;97142.38;;;28.14;47.71
12759;BME280;20944;47.048;15.390;2023-07-20T10:41:15;97132.78;;;28.12;47.38
12759;BME280;20944;47.048;15.390;2023-07-20T10:43:46;97144.59;;;28.19;49.98
12759;BME280;20944;47.048;15.390;2023-07-20T10:46:15;97144.41;;;28.20;51.86
12759;BME280;20944;47.048;15.390;2023-07-20T10:49:02;97144.59;;;28.27;52.69
12759;BME280;20944;47.048;15.390;2023-07-20T10:51:31;97142.13;;;28.34;52.97
12759;BME280;20944;47.048;15.390;2023-07-20T10:54:07;97150.38;;;28.32;50.08
12759;BME280;20944;47.048;15.390;2023-07-20T10:56:35;97136.50;;;28.11;50.42
12759;BME280;20944;47.048;15.390;2023-07-20T10:59:17;97123.69;;;28.13;51.48
12759;BME280;20944;47.048;15.390;2023-07-20T11:01:45;97124.25;;;28.41;52.76
12759;BME280;20944;47.048;15.390;2023-07-20T11:04:17;97111.13;;;28.70;53.17
12759;BME280;20944;47.048;15.390;2023-07-20T11:06:46;97117.03;;;28.90;48.30
12759;BME280;20944;47.048;15.390;2023-07-20T11:09:14;97116.72;;;28.85;46.50
12759;BME280;20944;47.048;15.390;2023-07-20T11:11:42;97115.19;;;28.74;47.89
12759;BME280;20944;47.048;15.390;2023-07-20T11:14:19;97122.09;;;28.44;47.09
12759;BME280;20944;47.048;15.390;2023-07-20T11:16:48;97122.34;;;28.17;47.76
12759;BME280;20944;47.048;15.390;2023-07-20T11:19:19;97136.25;;;27.88;48.17
12759;BME280;20944;47.048;15.390;2023-07-20T11:21:53;97132.47;;;27.47;49.08
12759;BME280;20944;47.048;15.390;2023-07-20T11:24:30;97132.03;;;27.25;49.53
12759;BME280;20944;47.048;15.390;2023-07-20T11:26:58;97132.38;;;27.22;50.38
12759;BME280;20944;47.048;15.390;2023-07-20T11:29:27;97134.06;;;27.23;50.96
12759;BME280;20944;47.048;15.390;2023-07-20T11:32:00;97133.34;;;27.21;53.16
12759;BME280;20944;47.048;15.390;2023-07-20T11:34:32;97142.50;;;26.84;53.64
12759;BME280;20944;47.048;15.390;2023-07-20T11:37:01;97144.28;;;26.58;52.99
12759;BME280;20944;47.048;15.390;2023-07-20T11:39:32;97148.28;;;26.54;55.09
12759;BME280;20944;47.048;15.390;2023-07-20T11:41:59;97152.88;;;26.61;53.02
12759;BME280;20944;47.048;15.390;2023-07-20T11:44:28;97148.81;;;26.75;54.49
12759;BME280;20944;47.048;15.390;2023-07-20T11:47:00;97135.09;;;27.04;53.91
12759;BME280;20944;47.048;15.390;2023-07-20T11:49:34;97117.41;;;27.28;50.22
12759;BME280;20944;47.048;15.390;2023-07-20T11:52:04;97147.66;;;27.48;45.36
12759;BME280;20944;47.048;15.390;2023-07-20T11:54:33;97113.50;;;27.48;47.59
12759;BME280;20944;47.048;15.390;2023-07-20T11:57:02;97108.09;;;27.74;49.62
12759;BME280;20944;47.048;15.390;2023-07-20T11:59:32;97128.72;;;28.16;48.42
12759;BME280;20944;47.048;15.390;2023-07-20T12:02:01;97134.72;;;28.36;46.12
12759;BME280;20944;47.048;15.390;2023-07-20T12:04:32;97132.50;;;28.31;47.14
12759;BME280;20944;47.048;15.390;2023-07-20T12:07:01;97129.97;;;28.30;47.77
12759;BME280;20944;47.048;15.390;2023-07-20T12:09:30;97129.44;;;28.26;48.59
12759;BME280;20944;47.048;15.390;2023-07-20T12:12:18;97131.94;;;28.11;48.49
12759;BME280;20944;47.048;15.390;2023-07-20T12:14:47;97133.44;;;27.98;47.91
12759;BME280;20944;47.048;15.390;2023-07-20T12:17:16;97128.50;;;27.85;48.67
12759;BME280;20944;47.048;15.390;2023-07-20T12:19:46;97134.47;;;27.71;48.53
12759;BME280;20944;47.048;15.390;2023-07-20T12:22:14;97089.31;;;27.56;49.36
12759;BME280;20944;47.048;15.390;2023-07-20T12:24:42;97135.44;;;27.61;49.30
12759;BME280;20944;47.048;15.390;2023-07-20T12:27:14;97129.31;;;27.51;49.49
12759;BME280;20944;47.048;15.390;2023-07-20T12:29:45;97141.25;;;27.49;50.33
12759;BME280;20944;47.048;15.390;2023-07-20T12:32:13;97146.69;;;27.05;50.54
12759;BME280;20944;47.048;15.390;2023-07-20T12:34:41;97167.56;;;26.49;52.77
12759;BME280;20944;47.048;15.390;2023-07-20T12:37:11;97149.28;;;26.07;54.97
12759;BME280;20944;47.048;15.390;2023-07-20T12:39:39;97146.97;;;25.95;56.63
12759;BME280;20944;47.048;15.390;2023-07-20T12:42:12;97145.28;;;25.56;56.58
12759;BME280;20944;47.048;15.390;2023-07-20T12:44:43;97158.88;;;25.55;60.08
12759;BME280;20944;47.048;15.390;2023-07-20T12:47:12;97144.13;;;25.32;59.71
12759;BME280;20944;47.048;15.390;2023-07-20T12:49:41;97163.63;;;25.34;60.45
12759;BME280;20944;47.048;15.390;2023-07-20T12:52:13;97176.78;;;24.98;63.62
12759;BME280;20944;47.048;15.390;2023-07-20T12:54:42;97166.78;;;24.81;66.95
12759;BME280;20944;47.048;15.390;2023-07-20T12:57:10;97171.00;;;24.64;69.99
12759;BME280;20944;47.048;15.390;2023-07-20T12:59:39;97166.09;;;24.59;72.53
12759;BME280;20944;47.048;15.390;2023-07-20T13:02:08;97167.78;;;24.70;74.15